createdAt,value
2022-11-07T00:02:41.004Z,9.90
2022-11-07T00:06:42.757Z,10.00
2022-11-07T00:10:44.343Z,10.00
2022-11-07T00:14:45.924Z,10.00
2022-11-07T00:18:47.596Z,10.00
2022-11-07T00:22:49.239Z,10.10
2022-11-07T00:26:50.899Z,10.10
2022-11-07T00:30:52.542Z,10.10
2022-11-07T00:34:54.210Z,10.10
2022-11-07T00:38:55.853Z,10.10
2022-11-07T00:42:57.481Z,10.20
2022-11-07T00:46:59.026Z,10.30
2022-11-07T00:51:11.446Z,10.30
2022-11-07T00:55:12.998Z,10.30
2022-11-07T00:59:14.600Z,10.30
2022-11-07T01:03:35.068Z,10.30
2022-11-07T01:07:37.097Z,10.40
2022-11-07T01:11:39.922Z,10.40
2022-11-07T01:15:41.512Z,10.50
2022-11-07T01:19:43.119Z,10.40
2022-11-07T01:23:45.253Z,10.50
2022-11-07T01:27:46.812Z,10.50
2022-11-07T01:31:48.552Z,10.60
2022-11-07T01:35:50.123Z,10.60
2022-11-07T01:39:51.948Z,10.70
2022-11-07T01:43:59.644Z,10.70
2022-11-07T01:48:01.819Z,10.70
2022-11-07T01:52:11.707Z,10.70
2022-11-07T01:56:14.994Z,10.80
2022-11-07T02:00:18.559Z,10.80
2022-11-07T02:04:21.778Z,10.80
2022-11-07T02:08:24.290Z,10.80
2022-11-07T02:12:26.866Z,10.70
2022-11-07T02:16:28.895Z,10.80
2022-11-07T02:20:30.485Z,10.80
2022-11-07T02:24:34.880Z,10.80
2022-11-07T02:28:37.401Z,10.90
2022-11-07T02:32:39.235Z,10.80
2022-11-07T02:36:41.282Z,10.80
2022-11-07T02:40:54.280Z,10.80
2022-11-07T02:45:00.447Z,10.90
2022-11-07T02:49:04.061Z,10.90
2022-11-07T02:53:05.805Z,10.90
2022-11-07T02:57:15.927Z,10.80
2022-11-07T03:01:18.908Z,10.90
2022-11-07T03:05:26.306Z,10.80
2022-11-07T03:09:30.164Z,10.90
2022-11-07T03:14:00.331Z,10.90
2022-11-07T03:18:00.481Z,10.90
2022-11-07T03:22:06.850Z,10.90
2022-11-07T03:26:15.335Z,11.00
2022-11-07T03:30:19.205Z,10.90
2022-11-07T03:34:25.042Z,11.00
2022-11-07T03:38:33.577Z,11.00
2022-11-07T03:42:41.052Z,11.00
2022-11-07T03:46:49.117Z,11.10
2022-11-07T03:50:51.911Z,11.10
2022-11-07T03:54:53.726Z,11.10
2022-11-07T03:58:56.557Z,11.10
2022-11-07T04:03:46.461Z,11.10
2022-11-07T04:07:22.626Z,11.10
2022-11-07T04:12:03.028Z,11.00
2022-11-07T04:16:24.666Z,11.10
2022-11-07T04:20:31.812Z,11.00
2022-11-07T04:24:40.204Z,11.20
2022-11-07T04:28:45.856Z,11.10
2022-11-07T04:32:55.128Z,11.20
2022-11-07T04:36:56.977Z,11.20
2022-11-07T04:40:59.870Z,11.20
2022-11-07T04:45:01.774Z,11.20
2022-11-07T04:49:06.038Z,11.20
2022-11-07T04:53:10.408Z,11.30
2022-11-07T04:57:12.422Z,11.20
2022-11-07T05:01:20.966Z,11.20
2022-11-07T05:05:26.323Z,11.10
2022-11-07T05:09:28.191Z,11.20
2022-11-07T05:13:33.715Z,11.10
2022-11-07T05:17:36.144Z,11.10
2022-11-07T05:21:40.366Z,11.10
2022-11-07T05:25:46.828Z,11.10
2022-11-07T05:29:51.379Z,11.20
2022-11-07T05:33:53.474Z,11.30
2022-11-07T05:38:01.316Z,11.30
2022-11-07T05:42:06.335Z,11.20
2022-11-07T05:46:08.359Z,11.20
2022-11-07T05:50:10.364Z,11.30
2022-11-07T05:54:16.838Z,11.40
2022-11-07T05:58:21.357Z,11.40
2022-11-07T06:02:27.489Z,11.40
2022-11-07T06:06:29.774Z,11.40
2022-11-07T06:10:31.459Z,11.50
2022-11-07T06:14:36.901Z,11.60
2022-11-07T06:18:41.920Z,11.60
2022-11-07T06:22:47.858Z,11.60
2022-11-07T06:27:02.400Z,11.60
2022-11-07T06:35:32.061Z,11.60
2022-11-07T06:39:42.941Z,11.60
2022-11-07T06:43:49.543Z,11.60
2022-11-07T06:47:51.862Z,11.60
2022-11-07T06:52:02.373Z,11.60
2022-11-07T06:56:05.455Z,11.50
2022-11-07T07:09:03.188Z,11.40
2022-11-07T07:13:32.085Z,11.40
2022-11-07T07:26:27.307Z,11.40
2022-11-07T07:30:35.708Z,11.40
2022-11-07T07:34:50.126Z,11.40
2022-11-07T07:39:03.770Z,11.40
2022-11-07T07:43:08.717Z,11.50
2022-11-07T07:47:29.334Z,11.60
2022-11-07T07:56:07.426Z,11.60
2022-11-07T08:00:10.672Z,11.70
2022-11-07T08:04:12.574Z,11.70
2022-11-07T08:08:14.329Z,11.80
2022-11-07T08:12:16.193Z,11.80
2022-11-07T08:16:17.997Z,11.80
2022-11-07T08:20:27.929Z,11.80
2022-11-07T08:24:29.841Z,11.80
2022-11-07T08:28:35.870Z,11.80
2022-11-07T08:32:37.561Z,11.90
2022-11-07T08:36:39.769Z,12.00
2022-11-07T08:40:41.972Z,12.10
2022-11-07T08:44:43.620Z,12.20
2022-11-07T08:48:45.173Z,12.30
2022-11-07T08:52:46.917Z,12.40
2022-11-07T08:56:48.859Z,12.50
2022-11-07T09:00:50.527Z,12.60
2022-11-07T09:04:52.305Z,12.60
2022-11-07T09:08:54.187Z,12.70
2022-11-07T09:12:55.759Z,12.80
2022-11-07T09:16:57.807Z,12.90
2022-11-07T09:20:59.421Z,12.90
2022-11-07T09:25:02.188Z,12.80
2022-11-07T09:29:04.309Z,12.90
2022-11-07T09:33:06.193Z,13.00
2022-11-07T09:37:07.882Z,13.00
2022-11-07T09:41:22.806Z,12.90
2022-11-07T09:45:28.677Z,12.90
2022-11-07T09:49:43.680Z,12.90
2022-11-07T09:53:47.377Z,13.10
2022-11-07T09:57:50.430Z,13.20
2022-11-07T10:01:52.210Z,13.30
2022-11-07T10:06:00.013Z,13.30
2022-11-07T10:10:20.525Z,13.30
2022-11-07T10:14:41.492Z,13.20
2022-11-07T10:18:50.402Z,13.40
2022-11-07T10:22:58.283Z,13.50
2022-11-07T10:27:01.048Z,13.70
2022-11-07T10:31:05.082Z,13.90
2022-11-07T10:35:12.927Z,13.80
2022-11-07T10:39:16.112Z,13.90
2022-11-07T10:43:25.726Z,13.80
2022-11-07T10:47:28.049Z,13.90
2022-11-07T10:51:36.847Z,13.90
2022-11-07T10:55:46.020Z,14.00
2022-11-07T10:59:55.853Z,14.10
2022-11-07T11:03:57.973Z,14.00
2022-11-07T11:08:15.330Z,14.20
2022-11-07T11:12:20.389Z,14.20
2022-11-07T11:16:27.118Z,14.30
2022-11-07T11:20:39.747Z,14.30
2022-11-07T11:24:41.476Z,14.30
2022-11-07T11:28:48.682Z,14.20
2022-11-07T11:32:52.150Z,14.20
2022-11-07T11:37:32.803Z,14.10
2022-11-07T11:41:53.028Z,14.00
2022-11-07T11:46:03.992Z,13.90
2022-11-07T11:50:14.194Z,13.90
2022-11-07T11:54:16.220Z,13.90
2022-11-07T11:58:41.344Z,14.00
2022-11-07T12:02:59.304Z,14.00
2022-11-07T12:07:11.040Z,14.10
2022-11-07T12:11:12.592Z,13.90
2022-11-07T12:15:35.346Z,13.90
2022-11-07T12:19:36.983Z,14.10
2022-11-07T12:23:45.251Z,14.10
2022-11-07T12:27:58.647Z,14.00
2022-11-07T12:32:09.615Z,14.20
2022-11-07T12:36:11.268Z,14.40
2022-11-07T12:40:31.705Z,14.30
2022-11-07T12:44:52.389Z,14.40
2022-11-07T12:49:00.105Z,14.40
2022-11-07T12:53:13.896Z,14.30
2022-11-07T12:57:20.132Z,14.20
2022-11-07T13:01:28.627Z,14.20
2022-11-07T13:05:41.138Z,14.30
2022-11-07T13:10:01.529Z,14.20
2022-11-07T13:14:24.208Z,14.20
2022-11-07T13:18:27.324Z,14.40
2022-11-07T13:22:36.130Z,14.40
2022-11-07T13:26:53.194Z,14.50
2022-11-07T13:30:56.196Z,14.50
2022-11-07T13:34:59.269Z,14.40
2022-11-07T13:39:04.575Z,14.30
2022-11-07T13:43:27.401Z,14.30
2022-11-07T13:47:33.034Z,14.30
2022-11-07T13:51:41.822Z,14.20
2022-11-07T13:56:06.933Z,14.20
2022-11-07T14:00:16.217Z,14.30
2022-11-07T14:04:19.978Z,14.30
2022-11-07T14:08:27.518Z,14.30
2022-11-07T14:12:29.444Z,14.40
2022-11-07T14:16:31.102Z,14.30
2022-11-07T14:20:32.937Z,14.30
2022-11-07T14:24:35.985Z,14.30
2022-11-07T14:28:38.759Z,14.30
2022-11-07T14:32:46.201Z,14.10
2022-11-07T14:36:52.669Z,14.20
2022-11-07T14:40:55.504Z,14.20
2022-11-07T14:44:57.657Z,14.30
2022-11-07T14:48:59.997Z,14.10
2022-11-07T14:53:01.597Z,14.20
2022-11-07T14:57:03.599Z,14.20
2022-11-07T15:01:08.395Z,14.20
2022-11-07T15:05:22.621Z,14.10
2022-11-07T15:09:33.973Z,14.00
2022-11-07T15:13:35.843Z,14.00
2022-11-07T15:17:44.615Z,13.90
2022-11-07T15:22:01.255Z,13.90
2022-11-07T15:26:06.770Z,13.80
2022-11-07T15:30:25.039Z,13.80
2022-11-07T15:34:45.528Z,13.80
2022-11-07T15:38:50.009Z,13.80
2022-11-07T15:42:51.629Z,13.70
2022-11-07T15:46:53.338Z,13.70
2022-11-07T15:50:55.078Z,13.60
2022-11-07T15:54:56.719Z,13.60
2022-11-07T15:58:59.197Z,13.60
2022-11-07T16:03:00.911Z,13.60
2022-11-07T16:07:02.702Z,13.50
2022-11-07T16:11:07.702Z,13.50
2022-11-07T16:15:13.419Z,13.50
2022-11-07T16:19:16.023Z,13.50
2022-11-07T16:23:18.274Z,13.50
2022-11-07T16:27:19.968Z,13.50
2022-11-07T16:31:21.583Z,13.40
2022-11-07T16:35:23.352Z,13.40
2022-11-07T16:39:25.030Z,13.40
2022-11-07T16:43:26.672Z,13.50
2022-11-07T16:47:29.700Z,13.40
2022-11-07T16:51:33.090Z,13.40
2022-11-07T16:55:34.847Z,13.40
2022-11-07T16:59:36.458Z,13.50
2022-11-07T17:03:38.085Z,13.40
2022-11-07T17:07:39.931Z,13.40
2022-11-07T17:11:41.683Z,13.40
2022-11-07T17:15:44.021Z,13.40
2022-11-07T17:19:45.805Z,13.40
2022-11-07T17:23:47.404Z,13.40
2022-11-07T17:27:49.031Z,13.40
2022-11-07T17:31:50.735Z,13.40
2022-11-07T17:35:54.181Z,13.30
2022-11-07T17:39:56.250Z,13.40
2022-11-07T17:43:58.224Z,13.40
2022-11-07T17:47:59.808Z,13.40
2022-11-07T17:52:01.444Z,13.40
2022-11-07T17:56:03.057Z,13.40
2022-11-07T18:00:08.248Z,13.40
2022-11-07T18:04:10.934Z,13.40
2022-11-07T18:08:25.256Z,13.50
2022-11-07T18:12:34.147Z,13.50
2022-11-07T18:16:37.318Z,13.50
2022-11-07T18:20:39.043Z,13.40
2022-11-07T18:24:43.170Z,13.40
2022-11-07T18:28:48.041Z,13.30
2022-11-07T18:32:53.668Z,13.30
2022-11-07T18:36:58.843Z,13.30
2022-11-07T18:41:06.048Z,13.30
2022-11-07T18:45:09.787Z,13.30
2022-11-07T18:49:13.992Z,13.20
2022-11-07T18:53:16.066Z,13.20
2022-11-07T18:57:17.801Z,13.20
2022-11-07T19:01:20.629Z,13.20
2022-11-07T19:05:22.360Z,13.20
2022-11-07T19:09:25.036Z,13.20
2022-11-07T19:13:27.119Z,13.20
2022-11-07T19:17:29.870Z,13.20
2022-11-07T19:21:32.152Z,13.20
2022-11-07T19:25:33.777Z,13.20
2022-11-07T19:29:36.367Z,13.20
2022-11-07T19:33:38.612Z,13.10
2022-11-07T19:37:41.414Z,13.20
2022-11-07T19:41:43.107Z,13.20
2022-11-07T19:45:44.787Z,13.10
2022-11-07T19:49:46.846Z,13.10
2022-11-07T19:53:53.180Z,13.10
2022-11-07T19:57:55.419Z,13.10
2022-11-07T20:02:25.939Z,13.10
2022-11-07T20:06:20.332Z,13.10
2022-11-07T20:10:22.151Z,13.10
2022-11-07T20:14:23.894Z,13.10
2022-11-07T20:18:25.606Z,13.10
2022-11-07T20:22:27.234Z,13.10
2022-11-07T20:26:30.527Z,13.10
2022-11-07T20:30:33.080Z,13.10
2022-11-07T20:34:37.103Z,13.00
2022-11-07T20:38:39.382Z,13.10
2022-11-07T20:42:41.077Z,13.00
2022-11-07T20:46:44.028Z,13.00
2022-11-07T20:50:45.951Z,13.00
2022-11-07T20:54:47.625Z,13.00
2022-11-07T20:58:50.286Z,12.90
2022-11-07T21:02:52.262Z,13.00
2022-11-07T21:06:53.924Z,13.00
2022-11-07T21:10:55.956Z,13.00
2022-11-07T21:14:57.686Z,12.90
2022-11-07T21:19:00.010Z,12.90
2022-11-07T21:23:01.734Z,13.00
2022-11-07T21:27:03.875Z,13.00
2022-11-07T21:31:06.310Z,13.00
2022-11-07T21:35:08.698Z,13.00
2022-11-07T21:39:10.299Z,13.00
2022-11-07T21:43:12.411Z,13.00
2022-11-07T21:47:14.141Z,13.00
2022-11-07T21:51:17.131Z,13.00
2022-11-07T21:55:18.916Z,13.00
2022-11-07T21:59:20.778Z,13.00
2022-11-07T22:03:43.722Z,13.10
2022-11-07T22:07:44.082Z,13.10
2022-11-07T22:11:45.691Z,13.00
2022-11-07T22:15:47.426Z,13.00
2022-11-07T22:19:51.080Z,13.00
2022-11-07T22:23:52.708Z,13.00
2022-11-07T22:27:54.428Z,12.90
2022-11-07T22:31:56.248Z,12.90
2022-11-07T22:36:04.932Z,12.80
2022-11-07T22:40:06.952Z,12.70
2022-11-07T22:44:08.655Z,12.70
2022-11-07T22:48:10.277Z,12.70
2022-11-07T22:52:11.906Z,12.80
2022-11-07T22:56:13.546Z,12.70
2022-11-07T23:00:21.589Z,12.70
2022-11-07T23:04:26.392Z,12.70
2022-11-07T23:08:30.572Z,12.60
2022-11-07T23:12:33.152Z,12.70
2022-11-07T23:16:36.290Z,12.70
2022-11-07T23:20:56.616Z,12.70
2022-11-07T23:24:58.200Z,12.60
2022-11-07T23:29:01.989Z,12.60
2022-11-07T23:33:06.665Z,12.60
2022-11-07T23:37:14.456Z,12.60
2022-11-07T23:41:16.222Z,12.60
2022-11-07T23:45:36.599Z,12.60
2022-11-07T23:49:56.722Z,12.50
2022-11-07T23:54:17.213Z,12.50
2022-11-07T23:58:37.286Z,12.40
